createdAt,value
2019-04-28T00:02:08.733Z,12.40
2019-04-28T00:04:41.573Z,12.40
2019-04-28T00:07:13.612Z,12.50
2019-04-28T00:09:46.139Z,12.40
2019-04-28T00:12:18.301Z,12.40
2019-04-28T00:14:51.675Z,12.30
2019-04-28T00:17:23.949Z,12.30
2019-04-28T00:19:57.560Z,12.20
2019-04-28T00:22:53.229Z,12.20
2019-04-28T00:25:31.222Z,12.20
2019-04-28T00:28:03.444Z,12.10
2019-04-28T00:30:35.516Z,12.10
2019-04-28T00:33:07.592Z,12.00
2019-04-28T00:35:39.595Z,12.00
2019-04-28T00:38:13.060Z,12.00
2019-04-28T00:40:45.520Z,11.90
2019-04-28T00:43:17.632Z,11.80
2019-04-28T00:45:51.299Z,11.80
2019-04-28T00:48:23.699Z,11.80
2019-04-28T00:50:55.705Z,11.80
2019-04-28T00:53:27.933Z,11.80
2019-04-28T00:56:02.195Z,11.80
2019-04-28T00:58:33.752Z,11.80
2019-04-28T01:01:11.295Z,11.80
2019-04-28T01:03:43.129Z,11.70
2019-04-28T01:06:15.157Z,11.70
2019-04-28T01:08:47.122Z,11.60
2019-04-28T01:11:19.219Z,11.60
2019-04-28T01:13:51.767Z,11.60
2019-04-28T01:16:33.736Z,11.60
2019-04-28T01:19:10.711Z,11.60
2019-04-28T01:22:00.400Z,11.60
2019-04-28T01:24:33.380Z,11.50
2019-04-28T01:27:07.174Z,11.50
2019-04-28T01:29:40.314Z,11.50
2019-04-28T01:32:22.984Z,11.50
2019-04-28T01:34:55.220Z,11.50
2019-04-28T01:37:29.525Z,11.50
2019-04-28T01:40:01.472Z,11.60
2019-04-28T01:42:45.273Z,11.60
2019-04-28T01:45:17.513Z,11.70
2019-04-28T01:47:50.434Z,11.70
2019-04-28T01:50:22.692Z,11.70
2019-04-28T01:52:54.803Z,11.70
2019-04-28T01:55:26.837Z,11.70
2019-04-28T01:58:00.303Z,11.70
2019-04-28T02:00:32.351Z,11.70
2019-04-28T02:03:04.519Z,11.90
2019-04-28T02:05:37.681Z,11.90
2019-04-28T02:08:10.256Z,11.90
2019-04-28T02:10:42.427Z,11.90
2019-04-28T02:13:14.454Z,11.90
2019-04-28T02:15:47.162Z,11.90
2019-04-28T02:18:20.071Z,11.80
2019-04-28T02:21:01.948Z,11.80
2019-04-28T02:23:36.603Z,11.80
2019-04-28T02:26:09.694Z,11.80
2019-04-28T02:28:41.995Z,11.90
2019-04-28T02:31:13.994Z,11.90
2019-04-28T02:33:46.057Z,11.90
2019-04-28T02:36:20.637Z,11.80
2019-04-28T02:38:52.233Z,11.90
2019-04-28T02:41:24.246Z,11.90
2019-04-28T02:43:56.295Z,11.90
2019-04-28T02:46:30.683Z,11.90
2019-04-28T02:49:03.261Z,11.90
2019-04-28T02:51:40.970Z,11.90
2019-04-28T02:54:13.009Z,11.90
2019-04-28T02:56:45.028Z,11.90
2019-04-28T02:59:17.139Z,11.90
2019-04-28T03:01:50.923Z,11.80
2019-04-28T03:04:23.717Z,11.90
2019-04-28T03:06:55.732Z,11.80
2019-04-28T03:09:30.405Z,11.80
2019-04-28T03:12:02.435Z,11.80
2019-04-28T03:14:34.442Z,11.70
2019-04-28T03:17:06.511Z,11.70
2019-04-28T03:19:41.245Z,11.70
2019-04-28T03:22:12.626Z,11.70
2019-04-28T03:24:46.351Z,11.70
2019-04-28T03:27:37.200Z,11.80
2019-04-28T03:30:28.175Z,11.80
2019-04-28T03:33:10.842Z,11.80
2019-04-28T03:35:35.920Z,11.80
2019-04-28T03:38:08.079Z,11.80
2019-04-28T03:40:41.446Z,11.80
2019-04-28T03:43:16.196Z,11.70
2019-04-28T03:45:53.586Z,11.70
2019-04-28T03:48:25.549Z,11.50
2019-04-28T03:50:57.690Z,11.50
2019-04-28T03:53:31.184Z,11.60
2019-04-28T03:56:03.598Z,11.60
2019-04-28T03:58:35.640Z,11.60
2019-04-28T04:01:10.445Z,11.60
2019-04-28T04:03:41.920Z,11.60
2019-04-28T04:06:14.097Z,11.60
2019-04-28T04:08:46.129Z,11.60
2019-04-28T04:11:31.989Z,11.60
2019-04-28T04:14:37.977Z,11.60
2019-04-28T04:17:21.011Z,11.60
2019-04-28T04:19:52.053Z,11.50
2019-04-28T04:22:24.007Z,11.50
2019-04-28T04:24:56.208Z,11.60
2019-04-28T04:27:30.803Z,11.60
2019-04-28T04:30:02.210Z,11.60
2019-04-28T04:32:34.349Z,11.50
2019-04-28T04:35:06.848Z,11.50
2019-04-28T04:37:40.630Z,11.50
2019-04-28T04:40:14.339Z,11.60
2019-04-28T04:42:46.270Z,11.60
2019-04-28T04:45:24.434Z,11.60
2019-04-28T04:47:56.424Z,11.60
2019-04-28T04:50:31.064Z,11.70
2019-04-28T04:53:02.818Z,11.70
2019-04-28T04:55:35.221Z,11.80
2019-04-28T04:58:07.351Z,11.80
2019-04-28T05:01:03.088Z,11.90
2019-04-28T05:03:37.344Z,11.90
2019-04-28T05:06:29.833Z,11.90
2019-04-28T05:09:02.215Z,12.00
2019-04-28T05:11:34.219Z,12.00
2019-04-28T05:14:07.591Z,12.10
2019-04-28T05:16:40.141Z,12.10
2019-04-28T05:19:12.209Z,12.20
2019-04-28T05:21:44.225Z,12.20
2019-04-28T05:24:33.674Z,12.40
2019-04-28T05:27:06.393Z,12.90
2019-04-28T05:29:39.827Z,13.40
2019-04-28T05:32:12.026Z,13.40
2019-04-28T05:34:46.667Z,13.40
2019-04-28T05:37:19.466Z,13.60
2019-04-28T05:39:52.518Z,13.90
2019-04-28T05:42:25.796Z,14.60
2019-04-28T05:44:59.795Z,15.20
2019-04-28T05:47:32.091Z,15.90
2019-04-28T05:50:19.665Z,16.30
2019-04-28T05:53:10.845Z,16.10
2019-04-28T05:55:57.503Z,15.30
2019-04-28T05:58:50.992Z,14.80
2019-04-28T06:01:47.998Z,14.60
2019-04-28T06:04:22.462Z,14.90
2019-04-28T06:06:59.669Z,15.50
2019-04-28T06:09:39.979Z,15.90
2019-04-28T06:12:22.364Z,16.70
2019-04-28T06:14:54.442Z,17.40
2019-04-28T06:17:26.477Z,18.20
2019-04-28T06:20:00.151Z,18.90
2019-04-28T06:22:32.555Z,19.00
2019-04-28T06:25:04.829Z,19.00
2019-04-28T06:27:36.825Z,19.10
2019-04-28T06:30:10.493Z,19.50
2019-04-28T06:32:42.510Z,19.70
2019-04-28T06:35:14.715Z,19.70
2019-04-28T06:37:46.807Z,19.70
2019-04-28T06:40:18.852Z,19.00
2019-04-28T06:42:50.876Z,18.90
2019-04-28T06:45:22.970Z,18.90
2019-04-28T06:47:55.360Z,19.50
2019-04-28T06:50:27.374Z,19.60
2019-04-28T06:52:59.508Z,20.10
2019-04-28T06:55:31.935Z,20.50
2019-04-28T06:58:04.012Z,21.00
2019-04-28T07:00:36.277Z,21.20
2019-04-28T07:03:16.997Z,21.30
2019-04-28T07:05:42.320Z,21.50
2019-04-28T07:08:14.605Z,21.60
2019-04-28T07:10:47.212Z,21.80
2019-04-28T07:13:20.722Z,21.30
2019-04-28T07:15:52.790Z,21.00
2019-04-28T07:18:24.812Z,20.20
2019-04-28T07:21:11.614Z,20.00
2019-04-28T07:23:43.611Z,19.90
2019-04-28T07:26:15.672Z,19.70
2019-04-28T07:28:47.766Z,19.60
2019-04-28T07:31:21.422Z,19.60
2019-04-28T07:33:53.480Z,19.50
2019-04-28T07:36:25.564Z,19.50
2019-04-28T07:38:58.662Z,19.40
2019-04-28T07:41:30.814Z,19.80
2019-04-28T07:44:02.830Z,19.80
2019-04-28T07:46:34.961Z,19.90
2019-04-28T07:49:07.281Z,20.30
2019-04-28T07:52:04.359Z,20.20
2019-04-28T07:54:36.469Z,20.00
2019-04-28T07:57:08.511Z,20.40
2019-04-28T07:59:40.790Z,20.60
2019-04-28T08:02:12.792Z,20.60
2019-04-28T08:04:44.990Z,21.00
2019-04-28T08:07:17.212Z,21.10
2019-04-28T08:09:49.359Z,21.60
2019-04-28T08:12:21.676Z,21.90
2019-04-28T08:14:53.823Z,22.60
2019-04-28T08:17:25.827Z,23.00
2019-04-28T08:19:58.317Z,23.10
2019-04-28T08:22:30.356Z,23.10
2019-04-28T08:25:02.400Z,22.70
2019-04-28T08:27:34.566Z,22.50
2019-04-28T08:30:07.051Z,22.60
2019-04-28T08:32:59.014Z,22.10
2019-04-28T08:35:31.044Z,22.20
2019-04-28T08:38:03.653Z,22.10
2019-04-28T08:40:35.677Z,22.30
2019-04-28T08:43:07.781Z,22.80
2019-04-28T08:45:39.802Z,23.00
2019-04-28T08:48:11.911Z,23.40
2019-04-28T08:50:44.318Z,23.10
2019-04-28T08:53:16.439Z,22.70
2019-04-28T08:55:48.694Z,22.80
2019-04-28T08:58:20.831Z,23.20
2019-04-28T09:00:52.930Z,23.50
2019-04-28T09:03:24.964Z,23.20
2019-04-28T09:05:57.076Z,22.40
2019-04-28T09:08:29.721Z,22.30
2019-04-28T09:11:01.815Z,21.90
2019-04-28T09:13:34.065Z,21.40
2019-04-28T09:16:06.370Z,21.50
2019-04-28T09:18:38.393Z,21.60
2019-04-28T09:21:10.520Z,21.50
2019-04-28T09:23:42.571Z,21.00
2019-04-28T09:26:14.707Z,21.20
2019-04-28T09:28:46.701Z,21.70
2019-04-28T09:31:18.951Z,21.90
2019-04-28T09:33:51.008Z,22.00
2019-04-28T09:36:23.063Z,21.80
2019-04-28T09:38:55.456Z,21.50
2019-04-28T09:41:27.598Z,22.00
2019-04-28T09:44:14.637Z,22.40
2019-04-28T09:46:47.326Z,22.40
2019-04-28T09:49:19.322Z,22.30
2019-04-28T09:51:52.002Z,22.60
2019-04-28T09:54:24.139Z,22.90
2019-04-28T09:56:57.189Z,22.80
2019-04-28T09:59:29.805Z,22.80
2019-04-28T10:02:01.849Z,22.70
2019-04-28T10:04:41.462Z,22.90
2019-04-28T10:07:07.738Z,22.70
2019-04-28T10:09:39.994Z,22.40
2019-04-28T10:12:12.097Z,22.60
2019-04-28T10:14:44.202Z,22.80
2019-04-28T10:17:16.279Z,22.90
2019-04-28T10:19:48.465Z,22.90
2019-04-28T10:22:20.491Z,22.80
2019-04-28T10:24:52.565Z,22.50
2019-04-28T10:27:24.590Z,22.50
2019-04-28T10:29:56.682Z,22.70
2019-04-28T10:32:28.849Z,22.80
2019-04-28T10:35:01.148Z,23.20
2019-04-28T10:37:33.134Z,22.70
2019-04-28T10:40:11.913Z,22.70
2019-04-28T10:42:43.997Z,22.40
2019-04-28T10:45:19.871Z,22.30
2019-04-28T10:47:52.328Z,22.40
2019-04-28T10:50:24.479Z,22.20
2019-04-28T10:52:56.857Z,22.20
2019-04-28T10:55:28.924Z,21.40
2019-04-28T10:58:00.991Z,21.20
2019-04-28T11:00:34.688Z,21.50
2019-04-28T11:03:07.366Z,21.70
2019-04-28T11:05:42.196Z,21.70
2019-04-28T11:08:55.190Z,21.20
2019-04-28T11:11:28.788Z,21.20
2019-04-28T11:14:00.946Z,21.30
2019-04-28T11:16:36.710Z,21.60
2019-04-28T11:19:09.936Z,21.50
2019-04-28T11:21:42.379Z,21.20
2019-04-28T11:24:14.487Z,21.50
2019-04-28T11:26:46.646Z,21.40
2019-04-28T11:29:18.835Z,21.40
2019-04-28T11:31:50.884Z,21.50
2019-04-28T11:34:57.182Z,21.20
2019-04-28T11:37:29.274Z,21.10
2019-04-28T11:40:01.330Z,20.70
2019-04-28T11:42:33.377Z,20.40
2019-04-28T11:45:14.006Z,20.20
2019-04-28T11:47:46.278Z,19.90
2019-04-28T11:50:18.639Z,19.90
2019-04-28T11:52:50.781Z,19.70
2019-04-28T11:55:22.890Z,19.60
2019-04-28T11:57:54.979Z,19.30
2019-04-28T12:00:31.794Z,19.20
2019-04-28T12:03:05.018Z,18.90
2019-04-28T12:05:41.407Z,18.50
2019-04-28T12:08:13.690Z,18.40
2019-04-28T12:11:03.908Z,18.40
2019-04-28T12:14:11.752Z,18.50
2019-04-28T12:17:02.815Z,18.40
2019-04-28T12:19:45.123Z,18.60
2019-04-28T12:22:17.186Z,18.30
2019-04-28T12:24:49.345Z,18.20
2019-04-28T12:27:21.472Z,18.50
2019-04-28T12:29:53.930Z,18.40
2019-04-28T12:32:26.103Z,18.40
2019-04-28T12:34:58.263Z,18.40
2019-04-28T12:37:30.360Z,18.40
2019-04-28T12:40:03.323Z,18.50
2019-04-28T12:42:35.451Z,18.60
2019-04-28T12:45:08.354Z,18.50
2019-04-28T12:47:40.613Z,18.50
2019-04-28T12:50:27.313Z,18.60
2019-04-28T12:52:59.621Z,18.50
2019-04-28T12:55:31.907Z,18.70
2019-04-28T12:58:05.201Z,18.70
2019-04-28T13:01:11.514Z,18.60
2019-04-28T13:04:01.300Z,18.50
2019-04-28T13:06:33.420Z,18.60
2019-04-28T13:09:07.536Z,18.70
2019-04-28T13:11:39.769Z,18.60
2019-04-28T13:14:11.891Z,18.60
2019-04-28T13:16:44.017Z,18.60
2019-04-28T13:19:16.293Z,18.50
2019-04-28T13:21:48.519Z,18.60
2019-04-28T13:24:20.866Z,18.70
2019-04-28T13:26:53.035Z,18.60
2019-04-28T13:29:25.236Z,18.60
2019-04-28T13:31:57.352Z,18.50
2019-04-28T13:34:30.978Z,18.60
2019-04-28T13:37:03.449Z,18.70
2019-04-28T13:39:40.675Z,18.80
2019-04-28T13:42:12.722Z,18.80
2019-04-28T13:45:07.151Z,18.50
2019-04-28T13:47:40.172Z,18.60
2019-04-28T13:50:18.586Z,18.60
2019-04-28T13:52:50.735Z,18.50
2019-04-28T13:55:50.700Z,18.50
2019-04-28T13:58:26.297Z,18.50
2019-04-28T14:01:32.300Z,18.40
2019-04-28T14:04:35.571Z,18.50
2019-04-28T14:07:08.361Z,18.50
2019-04-28T14:09:40.578Z,18.40
2019-04-28T14:12:12.843Z,18.40
2019-04-28T14:14:45.077Z,18.30
2019-04-28T14:17:17.288Z,18.30
2019-04-28T14:19:49.467Z,18.40
2019-04-28T14:22:21.769Z,18.40
2019-04-28T14:24:54.039Z,18.50
2019-04-28T14:27:26.286Z,18.40
2019-04-28T14:29:58.495Z,18.50
2019-04-28T14:32:31.913Z,18.30
2019-04-28T14:35:04.501Z,18.30
2019-04-28T14:37:36.861Z,18.40
2019-04-28T14:40:09.604Z,18.40
2019-04-28T14:42:41.731Z,18.30
2019-04-28T14:45:14.272Z,18.20
2019-04-28T14:47:46.957Z,18.10
2019-04-28T14:50:19.764Z,18.10
2019-04-28T14:52:52.058Z,18.10
2019-04-28T14:55:24.807Z,18.10
2019-04-28T14:57:57.475Z,18.10
2019-04-28T15:00:35.116Z,18.10
2019-04-28T15:03:10.619Z,18.00
2019-04-28T15:06:00.250Z,18.00
2019-04-28T15:08:51.697Z,17.90
2019-04-28T15:12:01.804Z,17.90
2019-04-28T15:14:35.310Z,17.90
2019-04-28T15:17:07.435Z,17.90
2019-04-28T15:19:39.951Z,17.90
2019-04-28T15:22:12.335Z,18.00
2019-04-28T15:24:44.594Z,18.00
2019-04-28T15:27:16.687Z,18.00
2019-04-28T15:29:50.330Z,17.90
2019-04-28T15:32:22.552Z,17.80
2019-04-28T15:34:54.967Z,17.80
2019-04-28T15:37:27.275Z,17.80
2019-04-28T15:39:59.568Z,17.70
2019-04-28T15:42:31.936Z,17.70
2019-04-28T15:45:04.291Z,17.50
2019-04-28T15:47:36.490Z,17.50
2019-04-28T15:50:09.165Z,17.50
2019-04-28T15:52:41.336Z,17.50
2019-04-28T15:55:15.575Z,17.40
2019-04-28T15:57:48.163Z,17.40
2019-04-28T16:00:20.507Z,17.40
2019-04-28T16:02:52.692Z,17.40
2019-04-28T16:05:25.215Z,17.20
2019-04-28T16:07:57.350Z,17.10
2019-04-28T16:10:29.640Z,17.20
2019-04-28T16:13:01.879Z,17.20
2019-04-28T16:15:34.165Z,17.10
2019-04-28T16:18:06.629Z,16.90
2019-04-28T16:20:38.828Z,16.80
2019-04-28T16:23:11.347Z,16.80
2019-04-28T16:25:43.699Z,16.80
2019-04-28T16:28:15.987Z,16.80
2019-04-28T16:30:48.380Z,16.80
2019-04-28T16:33:20.561Z,16.70
2019-04-28T16:35:52.932Z,16.70
2019-04-28T16:38:25.201Z,16.70
2019-04-28T16:40:57.415Z,16.60
2019-04-28T16:43:30.875Z,16.70
2019-04-28T16:46:03.067Z,16.70
2019-04-28T16:48:35.679Z,16.60
2019-04-28T16:51:07.957Z,16.60
2019-04-28T16:53:40.123Z,16.50
2019-04-28T16:56:28.999Z,16.50
2019-04-28T16:59:28.674Z,16.40
2019-04-28T17:02:09.132Z,16.40
2019-04-28T17:04:41.272Z,16.30
2019-04-28T17:07:13.686Z,16.10
2019-04-28T17:09:46.204Z,16.10
2019-04-28T17:12:18.575Z,16.10
2019-04-28T17:14:50.835Z,16.10
2019-04-28T17:17:23.166Z,16.10
2019-04-28T17:19:55.648Z,16.10
2019-04-28T17:22:27.967Z,16.10
2019-04-28T17:25:00.289Z,16.10
2019-04-28T17:27:32.724Z,16.10
2019-04-28T17:30:06.891Z,15.90
2019-04-28T17:32:39.369Z,15.80
2019-04-28T17:35:11.866Z,15.80
2019-04-28T17:37:44.243Z,15.80
2019-04-28T17:40:17.464Z,15.70
2019-04-28T17:42:49.919Z,15.70
2019-04-28T17:45:22.529Z,15.80
2019-04-28T17:47:56.315Z,15.70
2019-04-28T17:50:29.338Z,15.60
2019-04-28T17:53:01.586Z,15.60
2019-04-28T17:55:33.843Z,15.50
2019-04-28T17:58:06.242Z,15.50
2019-04-28T18:00:57.805Z,15.40
2019-04-28T18:03:40.605Z,15.30
2019-04-28T18:06:18.184Z,15.20
2019-04-28T18:08:50.741Z,15.10
2019-04-28T18:11:23.569Z,15.10
2019-04-28T18:13:56.215Z,15.10
2019-04-28T18:16:53.247Z,15.10
2019-04-28T18:19:26.234Z,15.00
2019-04-28T18:21:58.918Z,14.90
2019-04-28T18:24:31.655Z,14.90
2019-04-28T18:27:03.947Z,14.80
2019-04-28T18:29:36.987Z,14.80
2019-04-28T18:32:33.814Z,14.80
2019-04-28T18:35:17.224Z,14.80
2019-04-28T18:38:08.351Z,14.80
2019-04-28T18:40:50.823Z,14.70
2019-04-28T18:43:48.025Z,14.80
2019-04-28T18:46:24.720Z,14.80
2019-04-28T18:48:56.934Z,14.70
2019-04-28T18:51:29.825Z,14.70
2019-04-28T18:54:01.998Z,14.70
2019-04-28T18:56:45.017Z,14.60
2019-04-28T18:59:30.476Z,14.60
2019-04-28T19:02:30.350Z,14.60
2019-04-28T19:05:02.507Z,14.50
2019-04-28T19:07:53.456Z,14.50
2019-04-28T19:10:36.285Z,14.40
2019-04-28T19:13:16.027Z,14.50
2019-04-28T19:16:07.777Z,14.40
2019-04-28T19:18:42.262Z,14.40
2019-04-28T19:21:14.457Z,14.40
2019-04-28T19:23:46.807Z,14.40
2019-04-28T19:26:19.082Z,14.30
2019-04-28T19:28:51.376Z,14.40
2019-04-28T19:31:23.534Z,14.40
2019-04-28T19:33:56.138Z,14.30
2019-04-28T19:36:28.730Z,14.30
2019-04-28T19:39:03.586Z,14.40
2019-04-28T19:41:36.593Z,14.40
2019-04-28T19:44:08.981Z,14.40
2019-04-28T19:46:41.157Z,14.50
2019-04-28T19:49:13.376Z,14.30
2019-04-28T19:51:46.228Z,14.20
2019-04-28T19:54:20.580Z,14.20
2019-04-28T19:57:16.807Z,14.20
2019-04-28T20:00:19.473Z,14.20
2019-04-28T20:02:52.137Z,14.10
2019-04-28T20:05:24.697Z,14.20
2019-04-28T20:07:57.546Z,14.10
2019-04-28T20:10:29.984Z,14.20
2019-04-28T20:13:02.273Z,14.10
2019-04-28T20:15:34.439Z,14.10
2019-04-28T20:18:06.722Z,14.10
2019-04-28T20:20:39.177Z,14.00
2019-04-28T20:23:11.914Z,14.00
2019-04-28T20:25:44.720Z,14.00
2019-04-28T20:28:19.278Z,14.00
2019-04-28T20:30:51.742Z,14.10
2019-04-28T20:33:24.322Z,14.00
2019-04-28T20:36:01.174Z,13.90
2019-04-28T20:38:34.525Z,13.90
2019-04-28T20:41:12.533Z,14.00
2019-04-28T20:43:45.827Z,14.00
2019-04-28T20:46:18.144Z,13.90
2019-04-28T20:48:50.762Z,13.90
2019-04-28T20:51:22.899Z,13.80
2019-04-28T20:53:57.576Z,13.80
2019-04-28T20:56:29.984Z,13.70
2019-04-28T20:59:02.299Z,13.70
2019-04-28T21:01:35.016Z,13.60
2019-04-28T21:04:08.021Z,13.60
2019-04-28T21:06:43.233Z,13.70
2019-04-28T21:09:15.655Z,13.60
2019-04-28T21:11:48.168Z,13.60
2019-04-28T21:14:21.020Z,13.60
2019-04-28T21:16:53.568Z,13.50
2019-04-28T21:19:26.410Z,13.70
2019-04-28T21:21:59.174Z,13.50
2019-04-28T21:24:31.357Z,13.50
2019-04-28T21:27:03.754Z,13.40
2019-04-28T21:29:37.225Z,13.40
2019-04-28T21:32:09.563Z,13.40
2019-04-28T21:34:41.728Z,13.50
2019-04-28T21:37:14.324Z,13.50
2019-04-28T21:39:46.547Z,13.50
2019-04-28T21:42:21.929Z,13.50
2019-04-28T21:45:02.457Z,13.50
2019-04-28T21:47:36.841Z,13.40
2019-04-28T21:50:09.241Z,13.40
2019-04-28T21:52:43.074Z,13.40
2019-04-28T21:55:15.781Z,13.30
2019-04-28T21:57:48.193Z,13.20
2019-04-28T22:00:27.198Z,13.30
2019-04-28T22:02:59.513Z,13.30
2019-04-28T22:05:32.435Z,13.30
2019-04-28T22:08:05.326Z,13.30
2019-04-28T22:10:37.459Z,13.40
2019-04-28T22:13:09.600Z,13.30
2019-04-28T22:15:41.847Z,13.30
2019-04-28T22:18:14.552Z,13.30
2019-04-28T22:20:46.796Z,13.30
2019-04-28T22:23:24.161Z,13.20
2019-04-28T22:25:56.403Z,13.20
2019-04-28T22:28:29.025Z,13.20
2019-04-28T22:31:01.988Z,13.20
2019-04-28T22:33:34.129Z,13.20
2019-04-28T22:36:06.708Z,13.20
2019-04-28T22:38:38.927Z,13.20
2019-04-28T22:41:11.044Z,13.20
2019-04-28T22:43:43.202Z,13.20
2019-04-28T22:46:15.280Z,13.10
2019-04-28T22:48:47.361Z,13.10
2019-04-28T22:51:19.475Z,13.10
2019-04-28T22:53:52.646Z,13.10
2019-04-28T22:56:38.140Z,13.10
2019-04-28T22:59:21.018Z,13.10
2019-04-28T23:02:00.799Z,13.10
2019-04-28T23:04:38.896Z,13.10
2019-04-28T23:07:11.239Z,13.00
2019-04-28T23:09:43.353Z,13.10
2019-04-28T23:12:15.603Z,13.00
2019-04-28T23:14:47.652Z,13.10
2019-04-28T23:17:20.658Z,13.00
2019-04-28T23:19:53.160Z,13.10
2019-04-28T23:22:48.013Z,13.10
2019-04-28T23:25:20.134Z,13.10
2019-04-28T23:27:52.241Z,13.10
2019-04-28T23:30:55.324Z,13.20
2019-04-28T23:33:27.575Z,13.10
2019-04-28T23:35:59.767Z,13.00
2019-04-28T23:38:32.069Z,13.00
2019-04-28T23:41:12.348Z,13.00
2019-04-28T23:43:44.848Z,13.00
2019-04-28T23:46:16.966Z,13.00
2019-04-28T23:48:49.066Z,12.90
2019-04-28T23:51:46.022Z,12.90
2019-04-28T23:54:19.396Z,12.90
2019-04-28T23:56:51.524Z,12.80
2019-04-28T23:59:23.643Z,12.80
